sensor_id;sensor_type;location;lat;lon;timestamp;P1;durP1;ratioP1;P2;durP2;ratioP2
32323;SDS011;25666;44.350;9.222;2022-07-22T00:02:17;14.15;;;9.23;;
32323;SDS011;25666;44.350;9.222;2022-07-22T00:04:42;14.07;;;8.73;;
32323;SDS011;25666;44.350;9.222;2022-07-22T00:07:08;15.05;;;9.38;;
32323;SDS011;25666;44.350;9.222;2022-07-22T00:09:35;18.98;;;9.93;;
32323;SDS011;25666;44.350;9.222;2022-07-22T00:12:02;23.38;;;13.35;;
32323;SDS011;25666;44.350;9.222;2022-07-22T00:14:27;18.20;;;10.00;;
32323;SDS011;25666;44.350;9.222;2022-07-22T00:16:53;29.33;;;15.90;;
32323;SDS011;25666;44.350;9.222;2022-07-22T00:19:18;25.65;;;12.90;;
32323;SDS011;25666;44.350;9.222;2022-07-22T00:21:44;14.52;;;9.80;;
32323;SDS011;25666;44.350;9.222;2022-07-22T00:24:10;18.75;;;10.90;;
32323;SDS011;25666;44.350;9.222;2022-07-22T00:26:35;19.92;;;9.82;;
32323;SDS011;25666;44.350;9.222;2022-07-22T00:29:01;20.92;;;11.90;;
32323;SDS011;25666;44.350;9.222;2022-07-22T00:31:27;19.40;;;11.20;;
32323;SDS011;25666;44.350;9.222;2022-07-22T00:33:52;29.20;;;14.73;;
32323;SDS011;25666;44.350;9.222;2022-07-22T00:36:18;15.00;;;9.65;;
32323;SDS011;25666;44.350;9.222;2022-07-22T00:38:44;13.75;;;8.93;;
32323;SDS011;25666;44.350;9.222;2022-07-22T00:41:11;17.27;;;10.52;;
32323;SDS011;25666;44.350;9.222;2022-07-22T00:43:53;13.13;;;10.07;;
32323;SDS011;25666;44.350;9.222;2022-07-22T00:46:33;11.98;;;8.98;;
32323;SDS011;25666;44.350;9.222;2022-07-22T00:49:00;18.58;;;11.07;;
32323;SDS011;25666;44.350;9.222;2022-07-22T00:51:26;14.52;;;9.70;;
32323;SDS011;25666;44.350;9.222;2022-07-22T00:53:53;14.85;;;10.18;;
32323;SDS011;25666;44.350;9.222;2022-07-22T00:56:22;13.85;;;8.90;;
32323;SDS011;25666;44.350;9.222;2022-07-22T00:58:49;13.90;;;8.63;;
32323;SDS011;25666;44.350;9.222;2022-07-22T01:01:16;14.45;;;9.88;;
32323;SDS011;25666;44.350;9.222;2022-07-22T01:03:42;14.48;;;9.25;;
32323;SDS011;25666;44.350;9.222;2022-07-22T01:06:08;10.55;;;8.20;;
32323;SDS011;25666;44.350;9.222;2022-07-22T01:08:34;10.25;;;8.55;;
32323;SDS011;25666;44.350;9.222;2022-07-22T01:11:08;15.73;;;8.38;;
32323;SDS011;25666;44.350;9.222;2022-07-22T01:13:44;11.98;;;8.45;;
32323;SDS011;25666;44.350;9.222;2022-07-22T01:16:12;13.43;;;8.90;;
32323;SDS011;25666;44.350;9.222;2022-07-22T01:18:38;12.05;;;8.43;;
32323;SDS011;25666;44.350;9.222;2022-07-22T01:21:05;10.45;;;7.63;;
32323;SDS011;25666;44.350;9.222;2022-07-22T01:23:31;11.23;;;8.68;;
32323;SDS011;25666;44.350;9.222;2022-07-22T01:25:58;15.00;;;8.55;;
32323;SDS011;25666;44.350;9.222;2022-07-22T01:28:24;12.00;;;7.65;;
32323;SDS011;25666;44.350;9.222;2022-07-22T01:30:50;12.45;;;8.05;;
32323;SDS011;25666;44.350;9.222;2022-07-22T01:33:16;15.00;;;9.35;;
32323;SDS011;25666;44.350;9.222;2022-07-22T01:35:47;11.38;;;8.23;;
32323;SDS011;25666;44.350;9.222;2022-07-22T01:38:13;10.35;;;8.13;;
32323;SDS011;25666;44.350;9.222;2022-07-22T01:40:40;11.35;;;8.25;;
32323;SDS011;25666;44.350;9.222;2022-07-22T01:43:10;13.23;;;9.48;;
32323;SDS011;25666;44.350;9.222;2022-07-22T01:45:38;27.05;;;14.18;;
32323;SDS011;25666;44.350;9.222;2022-07-22T01:48:05;25.75;;;13.48;;
32323;SDS011;25666;44.350;9.222;2022-07-22T01:50:30;14.18;;;9.85;;
32323;SDS011;25666;44.350;9.222;2022-07-22T01:52:56;15.05;;;10.68;;
32323;SDS011;25666;44.350;9.222;2022-07-22T01:55:24;15.57;;;10.68;;
32323;SDS011;25666;44.350;9.222;2022-07-22T01:57:50;16.20;;;10.15;;
32323;SDS011;25666;44.350;9.222;2022-07-22T02:00:24;13.70;;;9.90;;
32323;SDS011;25666;44.350;9.222;2022-07-22T02:02:50;17.95;;;10.40;;
32323;SDS011;25666;44.350;9.222;2022-07-22T02:05:16;17.08;;;9.82;;
32323;SDS011;25666;44.350;9.222;2022-07-22T02:07:42;16.90;;;10.07;;
32323;SDS011;25666;44.350;9.222;2022-07-22T02:10:07;11.60;;;9.73;;
32323;SDS011;25666;44.350;9.222;2022-07-22T02:12:34;10.95;;;8.40;;
32323;SDS011;25666;44.350;9.222;2022-07-22T02:15:03;17.73;;;10.02;;
32323;SDS011;25666;44.350;9.222;2022-07-22T02:17:32;12.30;;;8.85;;
32323;SDS011;25666;44.350;9.222;2022-07-22T02:19:59;14.80;;;8.75;;
32323;SDS011;25666;44.350;9.222;2022-07-22T02:22:26;11.63;;;8.35;;
32323;SDS011;25666;44.350;9.222;2022-07-22T02:24:51;13.98;;;9.65;;
32323;SDS011;25666;44.350;9.222;2022-07-22T02:27:17;13.27;;;9.68;;
32323;SDS011;25666;44.350;9.222;2022-07-22T02:29:44;11.32;;;9.15;;
32323;SDS011;25666;44.350;9.222;2022-07-22T02:32:09;11.02;;;8.95;;
32323;SDS011;25666;44.350;9.222;2022-07-22T02:34:36;12.98;;;9.77;;
32323;SDS011;25666;44.350;9.222;2022-07-22T02:37:02;15.32;;;9.98;;
32323;SDS011;25666;44.350;9.222;2022-07-22T02:39:28;16.60;;;8.80;;
32323;SDS011;25666;44.350;9.222;2022-07-22T02:41:54;12.07;;;8.30;;
32323;SDS011;25666;44.350;9.222;2022-07-22T02:44:20;13.55;;;9.57;;
32323;SDS011;25666;44.350;9.222;2022-07-22T02:46:45;15.75;;;10.00;;
32323;SDS011;25666;44.350;9.222;2022-07-22T02:49:20;11.63;;;8.95;;
32323;SDS011;25666;44.350;9.222;2022-07-22T02:51:46;18.23;;;9.40;;
32323;SDS011;25666;44.350;9.222;2022-07-22T02:54:11;22.60;;;8.40;;
32323;SDS011;25666;44.350;9.222;2022-07-22T02:56:38;11.20;;;8.73;;
32323;SDS011;25666;44.350;9.222;2022-07-22T02:59:04;12.48;;;8.85;;
32323;SDS011;25666;44.350;9.222;2022-07-22T03:01:30;13.88;;;8.85;;
32323;SDS011;25666;44.350;9.222;2022-07-22T03:04:01;13.25;;;8.65;;
32323;SDS011;25666;44.350;9.222;2022-07-22T03:06:31;12.30;;;8.52;;
32323;SDS011;25666;44.350;9.222;2022-07-22T03:09:09;17.55;;;7.97;;
32323;SDS011;25666;44.350;9.222;2022-07-22T03:11:42;15.93;;;9.10;;
32323;SDS011;25666;44.350;9.222;2022-07-22T03:14:08;11.77;;;8.32;;
32323;SDS011;25666;44.350;9.222;2022-07-22T03:16:34;11.82;;;8.95;;
32323;SDS011;25666;44.350;9.222;2022-07-22T03:19:00;11.63;;;7.97;;
32323;SDS011;25666;44.350;9.222;2022-07-22T03:21:25;12.77;;;7.63;;
32323;SDS011;25666;44.350;9.222;2022-07-22T03:23:52;13.43;;;7.68;;
32323;SDS011;25666;44.350;9.222;2022-07-22T03:26:19;10.73;;;8.00;;
32323;SDS011;25666;44.350;9.222;2022-07-22T03:28:46;12.70;;;7.82;;
32323;SDS011;25666;44.350;9.222;2022-07-22T03:31:12;11.80;;;8.90;;
32323;SDS011;25666;44.350;9.222;2022-07-22T03:33:38;10.88;;;8.35;;
32323;SDS011;25666;44.350;9.222;2022-07-22T03:36:05;13.48;;;7.85;;
32323;SDS011;25666;44.350;9.222;2022-07-22T03:38:33;9.98;;;8.15;;
32323;SDS011;25666;44.350;9.222;2022-07-22T03:40:59;13.73;;;8.73;;
32323;SDS011;25666;44.350;9.222;2022-07-22T03:43:24;20.38;;;8.85;;
32323;SDS011;25666;44.350;9.222;2022-07-22T03:45:50;19.27;;;9.68;;
32323;SDS011;25666;44.350;9.222;2022-07-22T03:48:15;11.85;;;9.00;;
32323;SDS011;25666;44.350;9.222;2022-07-22T03:50:41;10.20;;;8.38;;
32323;SDS011;25666;44.350;9.222;2022-07-22T03:53:07;11.50;;;8.48;;
32323;SDS011;25666;44.350;9.222;2022-07-22T03:55:36;15.73;;;8.88;;
32323;SDS011;25666;44.350;9.222;2022-07-22T03:58:02;10.07;;;7.95;;
32323;SDS011;25666;44.350;9.222;2022-07-22T04:00:29;12.68;;;7.55;;
32323;SDS011;25666;44.350;9.222;2022-07-22T04:02:56;20.70;;;10.05;;
32323;SDS011;25666;44.350;9.222;2022-07-22T04:05:40;9.77;;;7.93;;
32323;SDS011;25666;44.350;9.222;2022-07-22T04:08:06;12.07;;;8.68;;
32323;SDS011;25666;44.350;9.222;2022-07-22T04:10:32;10.63;;;7.65;;
32323;SDS011;25666;44.350;9.222;2022-07-22T04:12:58;15.82;;;8.80;;
32323;SDS011;25666;44.350;9.222;2022-07-22T04:15:32;19.13;;;8.68;;
32323;SDS011;25666;44.350;9.222;2022-07-22T04:17:58;15.88;;;8.85;;
32323;SDS011;25666;44.350;9.222;2022-07-22T04:20:25;14.90;;;8.48;;
32323;SDS011;25666;44.350;9.222;2022-07-22T04:23:18;12.15;;;8.80;;
32323;SDS011;25666;44.350;9.222;2022-07-22T04:25:43;12.05;;;8.73;;
32323;SDS011;25666;44.350;9.222;2022-07-22T04:28:10;14.00;;;8.10;;
32323;SDS011;25666;44.350;9.222;2022-07-22T04:30:36;13.90;;;8.40;;
32323;SDS011;25666;44.350;9.222;2022-07-22T04:33:02;10.75;;;7.90;;
32323;SDS011;25666;44.350;9.222;2022-07-22T04:35:27;16.58;;;8.63;;
32323;SDS011;25666;44.350;9.222;2022-07-22T04:38:12;10.60;;;7.75;;
32323;SDS011;25666;44.350;9.222;2022-07-22T04:40:43;14.10;;;7.47;;
32323;SDS011;25666;44.350;9.222;2022-07-22T04:43:09;14.80;;;7.78;;
32323;SDS011;25666;44.350;9.222;2022-07-22T04:45:34;11.98;;;8.80;;
32323;SDS011;25666;44.350;9.222;2022-07-22T04:48:00;11.18;;;8.25;;
32323;SDS011;25666;44.350;9.222;2022-07-22T04:50:25;9.38;;;7.43;;
32323;SDS011;25666;44.350;9.222;2022-07-22T04:52:58;12.40;;;8.32;;
32323;SDS011;25666;44.350;9.222;2022-07-22T04:55:24;13.77;;;7.90;;
32323;SDS011;25666;44.350;9.222;2022-07-22T04:57:50;11.77;;;7.03;;
32323;SDS011;25666;44.350;9.222;2022-07-22T05:00:16;14.07;;;8.07;;
32323;SDS011;25666;44.350;9.222;2022-07-22T05:02:50;13.75;;;8.05;;
32323;SDS011;25666;44.350;9.222;2022-07-22T05:05:16;12.45;;;7.22;;
32323;SDS011;25666;44.350;9.222;2022-07-22T05:07:42;12.23;;;7.60;;
32323;SDS011;25666;44.350;9.222;2022-07-22T05:10:07;17.20;;;7.45;;
32323;SDS011;25666;44.350;9.222;2022-07-22T05:12:33;14.23;;;8.13;;
32323;SDS011;25666;44.350;9.222;2022-07-22T05:14:59;16.30;;;8.25;;
32323;SDS011;25666;44.350;9.222;2022-07-22T05:17:25;14.10;;;8.13;;
32323;SDS011;25666;44.350;9.222;2022-07-22T05:20:11;13.60;;;8.57;;
32323;SDS011;25666;44.350;9.222;2022-07-22T05:22:37;10.20;;;9.02;;
32323;SDS011;25666;44.350;9.222;2022-07-22T05:25:06;15.27;;;9.93;;
32323;SDS011;25666;44.350;9.222;2022-07-22T05:27:31;14.20;;;8.23;;
32323;SDS011;25666;44.350;9.222;2022-07-22T05:29:57;13.40;;;7.53;;
32323;SDS011;25666;44.350;9.222;2022-07-22T05:32:23;9.30;;;7.10;;
32323;SDS011;25666;44.350;9.222;2022-07-22T05:34:52;15.38;;;7.97;;
32323;SDS011;25666;44.350;9.222;2022-07-22T05:37:19;13.88;;;8.10;;
32323;SDS011;25666;44.350;9.222;2022-07-22T05:39:45;10.10;;;7.18;;
32323;SDS011;25666;44.350;9.222;2022-07-22T05:42:10;9.70;;;6.95;;
32323;SDS011;25666;44.350;9.222;2022-07-22T05:44:37;15.45;;;7.97;;
32323;SDS011;25666;44.350;9.222;2022-07-22T05:47:03;15.68;;;7.13;;
32323;SDS011;25666;44.350;9.222;2022-07-22T05:49:29;12.73;;;6.38;;
32323;SDS011;25666;44.350;9.222;2022-07-22T05:52:00;11.43;;;7.45;;
32323;SDS011;25666;44.350;9.222;2022-07-22T05:54:27;12.30;;;6.50;;
32323;SDS011;25666;44.350;9.222;2022-07-22T05:56:54;9.68;;;6.05;;
32323;SDS011;25666;44.350;9.222;2022-07-22T05:59:19;12.23;;;7.20;;
32323;SDS011;25666;44.350;9.222;2022-07-22T06:01:45;10.50;;;6.03;;
32323;SDS011;25666;44.350;9.222;2022-07-22T06:04:31;9.32;;;6.40;;
32323;SDS011;25666;44.350;9.222;2022-07-22T06:06:58;13.70;;;6.55;;
32323;SDS011;25666;44.350;9.222;2022-07-22T06:09:23;12.07;;;6.07;;
32323;SDS011;25666;44.350;9.222;2022-07-22T06:11:49;11.00;;;5.90;;
32323;SDS011;25666;44.350;9.222;2022-07-22T06:14:14;8.55;;;5.75;;
32323;SDS011;25666;44.350;9.222;2022-07-22T06:16:40;8.20;;;5.30;;
32323;SDS011;25666;44.350;9.222;2022-07-22T06:19:05;8.40;;;5.38;;
32323;SDS011;25666;44.350;9.222;2022-07-22T06:21:31;9.55;;;5.90;;
32323;SDS011;25666;44.350;9.222;2022-07-22T06:23:57;8.57;;;6.45;;
32323;SDS011;25666;44.350;9.222;2022-07-22T06:26:23;9.73;;;5.43;;
32323;SDS011;25666;44.350;9.222;2022-07-22T06:28:49;9.45;;;5.13;;
32323;SDS011;25666;44.350;9.222;2022-07-22T06:31:14;14.65;;;6.15;;
32323;SDS011;25666;44.350;9.222;2022-07-22T06:33:41;9.50;;;6.53;;
32323;SDS011;25666;44.350;9.222;2022-07-22T06:36:07;12.40;;;6.25;;
32323;SDS011;25666;44.350;9.222;2022-07-22T06:38:36;12.18;;;6.10;;
32323;SDS011;25666;44.350;9.222;2022-07-22T06:41:21;13.00;;;6.10;;
32323;SDS011;25666;44.350;9.222;2022-07-22T06:44:13;13.18;;;6.90;;
32323;SDS011;25666;44.350;9.222;2022-07-22T06:46:50;8.50;;;6.57;;
32323;SDS011;25666;44.350;9.222;2022-07-22T06:49:17;11.57;;;6.40;;
32323;SDS011;25666;44.350;9.222;2022-07-22T06:51:43;12.10;;;5.97;;
32323;SDS011;25666;44.350;9.222;2022-07-22T06:54:08;9.75;;;6.70;;
32323;SDS011;25666;44.350;9.222;2022-07-22T06:56:34;8.20;;;6.20;;
32323;SDS011;25666;44.350;9.222;2022-07-22T06:58:59;8.18;;;7.35;;
32323;SDS011;25666;44.350;9.222;2022-07-22T07:01:25;7.07;;;6.32;;
32323;SDS011;25666;44.350;9.222;2022-07-22T07:03:58;13.52;;;7.47;;
32323;SDS011;25666;44.350;9.222;2022-07-22T07:06:24;8.43;;;7.63;;
32323;SDS011;25666;44.350;9.222;2022-07-22T07:09:08;7.95;;;7.18;;
32323;SDS011;25666;44.350;9.222;2022-07-22T07:11:34;7.70;;;7.05;;
32323;SDS011;25666;44.350;9.222;2022-07-22T07:14:05;10.52;;;7.95;;
32323;SDS011;25666;44.350;9.222;2022-07-22T07:16:31;7.90;;;6.93;;
32323;SDS011;25666;44.350;9.222;2022-07-22T07:18:56;11.35;;;7.20;;
32323;SDS011;25666;44.350;9.222;2022-07-22T07:21:22;9.82;;;7.90;;
32323;SDS011;25666;44.350;9.222;2022-07-22T07:23:47;7.13;;;6.47;;
32323;SDS011;25666;44.350;9.222;2022-07-22T07:26:13;8.13;;;7.00;;
32323;SDS011;25666;44.350;9.222;2022-07-22T07:28:39;8.20;;;7.40;;
32323;SDS011;25666;44.350;9.222;2022-07-22T07:31:11;9.25;;;6.45;;
32323;SDS011;25666;44.350;9.222;2022-07-22T07:33:37;9.32;;;7.43;;
32323;SDS011;25666;44.350;9.222;2022-07-22T07:36:03;8.27;;;7.50;;
32323;SDS011;25666;44.350;9.222;2022-07-22T07:38:35;10.15;;;7.85;;
32323;SDS011;25666;44.350;9.222;2022-07-22T07:41:03;6.85;;;6.35;;
32323;SDS011;25666;44.350;9.222;2022-07-22T07:43:29;9.85;;;7.00;;
32323;SDS011;25666;44.350;9.222;2022-07-22T07:45:54;7.30;;;6.47;;
32323;SDS011;25666;44.350;9.222;2022-07-22T07:48:20;10.00;;;7.38;;
32323;SDS011;25666;44.350;9.222;2022-07-22T07:50:46;10.32;;;6.82;;
32323;SDS011;25666;44.350;9.222;2022-07-22T07:53:15;9.00;;;7.22;;
32323;SDS011;25666;44.350;9.222;2022-07-22T07:55:42;7.70;;;6.88;;
32323;SDS011;25666;44.350;9.222;2022-07-22T07:58:07;9.90;;;7.72;;
32323;SDS011;25666;44.350;9.222;2022-07-22T08:00:33;7.55;;;6.45;;
32323;SDS011;25666;44.350;9.222;2022-07-22T08:03:01;7.03;;;6.32;;
32323;SDS011;25666;44.350;9.222;2022-07-22T08:05:29;8.80;;;7.85;;
32323;SDS011;25666;44.350;9.222;2022-07-22T08:07:57;11.00;;;6.85;;
32323;SDS011;25666;44.350;9.222;2022-07-22T08:10:22;7.85;;;6.18;;
32323;SDS011;25666;44.350;9.222;2022-07-22T08:13:08;9.27;;;6.72;;
32323;SDS011;25666;44.350;9.222;2022-07-22T08:15:46;13.40;;;6.85;;
32323;SDS011;25666;44.350;9.222;2022-07-22T08:18:31;7.57;;;6.78;;
32323;SDS011;25666;44.350;9.222;2022-07-22T08:20:57;10.43;;;6.45;;
32323;SDS011;25666;44.350;9.222;2022-07-22T08:23:59;8.85;;;6.22;;
32323;SDS011;25666;44.350;9.222;2022-07-22T08:26:25;9.82;;;6.57;;
32323;SDS011;25666;44.350;9.222;2022-07-22T08:28:51;11.43;;;6.90;;
32323;SDS011;25666;44.350;9.222;2022-07-22T08:31:16;15.93;;;6.75;;
32323;SDS011;25666;44.350;9.222;2022-07-22T08:33:42;11.75;;;6.55;;
32323;SDS011;25666;44.350;9.222;2022-07-22T08:36:08;7.78;;;6.15;;
32323;SDS011;25666;44.350;9.222;2022-07-22T08:38:33;9.23;;;7.22;;
32323;SDS011;25666;44.350;9.222;2022-07-22T08:41:00;13.02;;;7.38;;
32323;SDS011;25666;44.350;9.222;2022-07-22T08:43:27;11.68;;;6.82;;
32323;SDS011;25666;44.350;9.222;2022-07-22T08:45:53;9.88;;;6.95;;
32323;SDS011;25666;44.350;9.222;2022-07-22T08:48:19;10.55;;;8.13;;
32323;SDS011;25666;44.350;9.222;2022-07-22T08:50:59;10.10;;;6.90;;
32323;SDS011;25666;44.350;9.222;2022-07-22T08:53:48;9.82;;;7.32;;
32323;SDS011;25666;44.350;9.222;2022-07-22T08:56:13;11.40;;;7.63;;
32323;SDS011;25666;44.350;9.222;2022-07-22T08:58:40;10.88;;;7.90;;
32323;SDS011;25666;44.350;9.222;2022-07-22T09:01:14;8.07;;;6.88;;
32323;SDS011;25666;44.350;9.222;2022-07-22T09:03:54;8.57;;;7.25;;
32323;SDS011;25666;44.350;9.222;2022-07-22T09:06:23;7.97;;;5.85;;
32323;SDS011;25666;44.350;9.222;2022-07-22T09:11:39;9.95;;;8.02;;
32323;SDS011;25666;44.350;9.222;2022-07-22T09:14:10;12.82;;;7.93;;
32323;SDS011;25666;44.350;9.222;2022-07-22T09:17:00;17.35;;;8.73;;
32323;SDS011;25666;44.350;9.222;2022-07-22T09:19:41;14.93;;;7.75;;
32323;SDS011;25666;44.350;9.222;2022-07-22T09:22:46;9.02;;;7.97;;
32323;SDS011;25666;44.350;9.222;2022-07-22T09:30:54;9.85;;;8.35;;
32323;SDS011;25666;44.350;9.222;2022-07-22T09:33:21;12.82;;;9.07;;
32323;SDS011;25666;44.350;9.222;2022-07-22T09:35:53;15.23;;;8.68;;
32323;SDS011;25666;44.350;9.222;2022-07-22T09:38:27;14.30;;;8.57;;
32323;SDS011;25666;44.350;9.222;2022-07-22T09:40:55;10.02;;;8.18;;
32323;SDS011;25666;44.350;9.222;2022-07-22T09:43:21;10.68;;;8.77;;
32323;SDS011;25666;44.350;9.222;2022-07-22T09:45:48;15.82;;;8.55;;
32323;SDS011;25666;44.350;9.222;2022-07-22T09:48:47;13.25;;;8.30;;
32323;SDS011;25666;44.350;9.222;2022-07-22T09:51:31;11.60;;;8.15;;
32323;SDS011;25666;44.350;9.222;2022-07-22T09:54:10;13.10;;;8.98;;
32323;SDS011;25666;44.350;9.222;2022-07-22T09:56:37;11.95;;;8.68;;
32323;SDS011;25666;44.350;9.222;2022-07-22T09:59:03;15.73;;;9.38;;
32323;SDS011;25666;44.350;9.222;2022-07-22T10:01:34;14.70;;;10.03;;
32323;SDS011;25666;44.350;9.222;2022-07-22T10:04:02;13.82;;;10.27;;
32323;SDS011;25666;44.350;9.222;2022-07-22T10:06:29;20.13;;;8.90;;
32323;SDS011;25666;44.350;9.222;2022-07-22T10:08:55;12.32;;;8.80;;
32323;SDS011;25666;44.350;9.222;2022-07-22T10:11:21;12.75;;;8.98;;
32323;SDS011;25666;44.350;9.222;2022-07-22T10:13:47;12.80;;;9.02;;
32323;SDS011;25666;44.350;9.222;2022-07-22T10:16:13;13.63;;;9.37;;
32323;SDS011;25666;44.350;9.222;2022-07-22T10:18:43;13.27;;;9.25;;
32323;SDS011;25666;44.350;9.222;2022-07-22T10:21:10;10.70;;;8.80;;
32323;SDS011;25666;44.350;9.222;2022-07-22T10:23:36;16.25;;;10.48;;
32323;SDS011;25666;44.350;9.222;2022-07-22T10:26:52;9.45;;;8.07;;
32323;SDS011;25666;44.350;9.222;2022-07-22T10:29:38;15.52;;;8.60;;
32323;SDS011;25666;44.350;9.222;2022-07-22T10:34:43;9.63;;;7.93;;
32323;SDS011;25666;44.350;9.222;2022-07-22T10:40:25;16.10;;;10.02;;
32323;SDS011;25666;44.350;9.222;2022-07-22T10:47:51;11.68;;;8.70;;
32323;SDS011;25666;44.350;9.222;2022-07-22T10:50:38;17.67;;;9.65;;
32323;SDS011;25666;44.350;9.222;2022-07-22T10:53:14;15.45;;;8.70;;
32323;SDS011;25666;44.350;9.222;2022-07-22T10:58:47;14.43;;;8.48;;
32323;SDS011;25666;44.350;9.222;2022-07-22T11:01:18;13.13;;;9.52;;
32323;SDS011;25666;44.350;9.222;2022-07-22T11:03:46;19.33;;;11.10;;
32323;SDS011;25666;44.350;9.222;2022-07-22T11:08:39;12.25;;;8.23;;
32323;SDS011;25666;44.350;9.222;2022-07-22T11:11:09;11.75;;;7.78;;
32323;SDS011;25666;44.350;9.222;2022-07-22T11:13:35;13.38;;;8.63;;
32323;SDS011;25666;44.350;9.222;2022-07-22T11:16:15;10.75;;;8.13;;
32323;SDS011;25666;44.350;9.222;2022-07-22T11:18:55;17.52;;;9.90;;
32323;SDS011;25666;44.350;9.222;2022-07-22T11:21:26;12.25;;;8.90;;
32323;SDS011;25666;44.350;9.222;2022-07-22T11:23:54;11.88;;;8.82;;
32323;SDS011;25666;44.350;9.222;2022-07-22T11:29:02;14.50;;;8.52;;
32323;SDS011;25666;44.350;9.222;2022-07-22T11:31:28;18.38;;;9.10;;
32323;SDS011;25666;44.350;9.222;2022-07-22T11:34:03;13.35;;;8.75;;
32323;SDS011;25666;44.350;9.222;2022-07-22T11:36:34;22.48;;;11.07;;
32323;SDS011;25666;44.350;9.222;2022-07-22T11:39:02;11.18;;;9.05;;
32323;SDS011;25666;44.350;9.222;2022-07-22T11:41:29;15.63;;;8.60;;
32323;SDS011;25666;44.350;9.222;2022-07-22T11:43:56;15.43;;;8.68;;
32323;SDS011;25666;44.350;9.222;2022-07-22T11:46:21;12.25;;;8.32;;
32323;SDS011;25666;44.350;9.222;2022-07-22T11:48:48;14.38;;;9.88;;
32323;SDS011;25666;44.350;9.222;2022-07-22T11:51:14;11.32;;;9.00;;
32323;SDS011;25666;44.350;9.222;2022-07-22T11:53:41;11.40;;;8.45;;
32323;SDS011;25666;44.350;9.222;2022-07-22T11:56:07;17.85;;;8.32;;
32323;SDS011;25666;44.350;9.222;2022-07-22T12:01:12;17.17;;;9.48;;
32323;SDS011;25666;44.350;9.222;2022-07-22T12:03:39;8.63;;;7.30;;
32323;SDS011;25666;44.350;9.222;2022-07-22T12:06:14;18.33;;;9.18;;
32323;SDS011;25666;44.350;9.222;2022-07-22T12:08:45;14.15;;;8.77;;
32323;SDS011;25666;44.350;9.222;2022-07-22T12:13:43;15.73;;;7.53;;
32323;SDS011;25666;44.350;9.222;2022-07-22T12:16:17;16.70;;;9.68;;
32323;SDS011;25666;44.350;9.222;2022-07-22T12:18:43;16.98;;;9.27;;
32323;SDS011;25666;44.350;9.222;2022-07-22T12:21:09;15.43;;;8.80;;
32323;SDS011;25666;44.350;9.222;2022-07-22T12:23:34;14.65;;;9.00;;
32323;SDS011;25666;44.350;9.222;2022-07-22T12:26:01;16.00;;;10.00;;
32323;SDS011;25666;44.350;9.222;2022-07-22T12:28:27;13.23;;;9.13;;
32323;SDS011;25666;44.350;9.222;2022-07-22T12:30:54;9.88;;;8.68;;
32323;SDS011;25666;44.350;9.222;2022-07-22T12:33:21;19.65;;;10.45;;
32323;SDS011;25666;44.350;9.222;2022-07-22T12:38:45;12.80;;;9.13;;
32323;SDS011;25666;44.350;9.222;2022-07-22T12:41:20;10.77;;;8.25;;
32323;SDS011;25666;44.350;9.222;2022-07-22T12:43:48;17.33;;;8.45;;
32323;SDS011;25666;44.350;9.222;2022-07-22T12:46:15;15.13;;;8.82;;
32323;SDS011;25666;44.350;9.222;2022-07-22T12:48:50;14.60;;;8.85;;
32323;SDS011;25666;44.350;9.222;2022-07-22T12:51:16;13.98;;;9.30;;
32323;SDS011;25666;44.350;9.222;2022-07-22T12:53:42;15.93;;;9.35;;
32323;SDS011;25666;44.350;9.222;2022-07-22T12:56:08;14.15;;;9.63;;
32323;SDS011;25666;44.350;9.222;2022-07-22T12:58:36;12.38;;;8.98;;
32323;SDS011;25666;44.350;9.222;2022-07-22T13:01:03;11.35;;;8.75;;
32323;SDS011;25666;44.350;9.222;2022-07-22T13:03:29;16.42;;;9.27;;
32323;SDS011;25666;44.350;9.222;2022-07-22T13:06:04;16.60;;;9.07;;
32323;SDS011;25666;44.350;9.222;2022-07-22T13:08:30;14.70;;;9.43;;
32323;SDS011;25666;44.350;9.222;2022-07-22T13:10:56;31.90;;;12.32;;
32323;SDS011;25666;44.350;9.222;2022-07-22T13:13:23;14.02;;;9.55;;
32323;SDS011;25666;44.350;9.222;2022-07-22T13:15:49;16.58;;;9.90;;
32323;SDS011;25666;44.350;9.222;2022-07-22T13:18:15;17.70;;;10.50;;
32323;SDS011;25666;44.350;9.222;2022-07-22T13:20:42;17.58;;;11.18;;
32323;SDS011;25666;44.350;9.222;2022-07-22T13:23:08;14.90;;;10.77;;
32323;SDS011;25666;44.350;9.222;2022-07-22T13:25:34;20.25;;;9.95;;
32323;SDS011;25666;44.350;9.222;2022-07-22T13:28:00;11.85;;;9.68;;
32323;SDS011;25666;44.350;9.222;2022-07-22T13:30:26;14.40;;;9.25;;
32323;SDS011;25666;44.350;9.222;2022-07-22T13:32:52;13.45;;;8.98;;
32323;SDS011;25666;44.350;9.222;2022-07-22T13:35:17;20.65;;;10.40;;
32323;SDS011;25666;44.350;9.222;2022-07-22T13:37:44;24.48;;;11.18;;
32323;SDS011;25666;44.350;9.222;2022-07-22T13:40:10;18.70;;;10.27;;
32323;SDS011;25666;44.350;9.222;2022-07-22T13:42:36;12.90;;;8.90;;
32323;SDS011;25666;44.350;9.222;2022-07-22T13:45:03;15.98;;;9.80;;
32323;SDS011;25666;44.350;9.222;2022-07-22T13:47:29;18.73;;;9.80;;
32323;SDS011;25666;44.350;9.222;2022-07-22T13:49:55;14.80;;;9.73;;
32323;SDS011;25666;44.350;9.222;2022-07-22T13:52:21;18.02;;;10.23;;
32323;SDS011;25666;44.350;9.222;2022-07-22T13:54:47;16.98;;;9.98;;
32323;SDS011;25666;44.350;9.222;2022-07-22T13:57:14;13.20;;;9.93;;
32323;SDS011;25666;44.350;9.222;2022-07-22T13:59:40;19.08;;;10.77;;
32323;SDS011;25666;44.350;9.222;2022-07-22T14:02:07;14.23;;;10.27;;
32323;SDS011;25666;44.350;9.222;2022-07-22T14:04:33;21.27;;;11.75;;
32323;SDS011;25666;44.350;9.222;2022-07-22T14:06:58;20.13;;;11.10;;
32323;SDS011;25666;44.350;9.222;2022-07-22T14:09:24;16.42;;;11.48;;
32323;SDS011;25666;44.350;9.222;2022-07-22T14:11:49;20.08;;;13.20;;
32323;SDS011;25666;44.350;9.222;2022-07-22T14:14:15;20.48;;;13.90;;
32323;SDS011;25666;44.350;9.222;2022-07-22T14:16:41;17.95;;;11.38;;
32323;SDS011;25666;44.350;9.222;2022-07-22T14:19:11;22.90;;;13.63;;
32323;SDS011;25666;44.350;9.222;2022-07-22T14:21:39;16.90;;;12.82;;
32323;SDS011;25666;44.350;9.222;2022-07-22T14:24:07;18.48;;;13.90;;
32323;SDS011;25666;44.350;9.222;2022-07-22T14:26:34;15.82;;;12.70;;
32323;SDS011;25666;44.350;9.222;2022-07-22T14:29:00;17.58;;;12.77;;
32323;SDS011;25666;44.350;9.222;2022-07-22T14:31:26;20.15;;;14.48;;
32323;SDS011;25666;44.350;9.222;2022-07-22T14:33:53;27.25;;;15.45;;
32323;SDS011;25666;44.350;9.222;2022-07-22T14:36:19;15.57;;;13.70;;
32323;SDS011;25666;44.350;9.222;2022-07-22T14:38:45;19.23;;;14.23;;
32323;SDS011;25666;44.350;9.222;2022-07-22T14:41:10;19.77;;;14.00;;
32323;SDS011;25666;44.350;9.222;2022-07-22T14:43:36;24.27;;;15.00;;
32323;SDS011;25666;44.350;9.222;2022-07-22T14:46:03;18.92;;;12.23;;
32323;SDS011;25666;44.350;9.222;2022-07-22T14:48:29;20.85;;;14.27;;
32323;SDS011;25666;44.350;9.222;2022-07-22T14:50:56;16.30;;;13.27;;
32323;SDS011;25666;44.350;9.222;2022-07-22T14:53:21;19.70;;;14.70;;
32323;SDS011;25666;44.350;9.222;2022-07-22T14:55:47;17.10;;;13.93;;
32323;SDS011;25666;44.350;9.222;2022-07-22T14:58:13;19.27;;;13.68;;
32323;SDS011;25666;44.350;9.222;2022-07-22T15:00:38;18.42;;;12.63;;
32323;SDS011;25666;44.350;9.222;2022-07-22T15:03:04;24.25;;;15.40;;
32323;SDS011;25666;44.350;9.222;2022-07-22T15:05:29;21.85;;;12.43;;
32323;SDS011;25666;44.350;9.222;2022-07-22T15:07:55;15.48;;;12.63;;
32323;SDS011;25666;44.350;9.222;2022-07-22T15:10:20;18.63;;;12.63;;
32323;SDS011;25666;44.350;9.222;2022-07-22T15:12:46;19.10;;;12.63;;
32323;SDS011;25666;44.350;9.222;2022-07-22T15:15:11;20.30;;;13.18;;
32323;SDS011;25666;44.350;9.222;2022-07-22T15:17:37;21.17;;;14.23;;